Briefing drone pour Moussan

Rechercher une autre localisation

Conditions de vol :


Nous sommes le : Dimanche 07 mars 2021
Il est 23:15 UTC (00:15 LT)

Lever de soleil : 05:46 UTC (06:46 LT)
Coucher de soleil : 18:11 UTC (19:11 LT)

Météo

L'essentiel des conditions de vol

VIGILANCE MÉTÉO FRANCE - Aude (11)
Pas de vigilances particulieres
CARTE TEMSI
CARTES DES FRONTS
METAR de LFMU
LFMU 062300Z AUTO 36002KT 9999 BKN018/// BKN029/// BKN047/// ///CB 10/07 Q1024

Date d'émission: 06/03/2021
Heure d'émission: 23:00 UTC
Vent: 360° pour 2 KT (4 km/h)
Visibilité horizontale: > 10 km
Plafond :
- Nuages morcelés à 1800ft (549m)
- Nuages morcelés à 2900ft (884m)
- Nuages morcelés à 4700ft (1433m)
Température: 10 °C
Point de rosée: 7 °C
Humidité: 82%
Pression (QNH): 1024 hPa
TAF de LFMU
LFMU 061931Z 0619/0715 CNL

Conditions prévues :

Heure d'émission : Bulletin éffectué le 06 à 19:00 UTC
Prévision : Valide du 06 a 19:00 UTC au 07 a 15:00 UTC
Nuages : à 0ft (0 m)
WEBCAM POUR MOUSSAN

Réglementation

Voler en sécurité

CARTES AERONAUTIQUE 1/500.000
CARTES VAC (LFMU)
SUP AIP




Chargement des AIP...
NOTAM (MOUSSAN + Terrain à proximité / FIR )




Chargement des NOTAMS...
CONTACT PREFECTURE 11


Avertissement : Les données mises à disposition sont indicatives. Oxygène Drone ne pourra être tenu responsable de dégâts causés aux biens et aux personnes.